Time;durP1;ratioP1;P1;durP2;ratioP2;P2;SDS_P1;SDS_P2;PMS_P1;PMS_P2;Temp;Humidity;BMP_temperature;BMP_pressure;BME280_temperature;BME280_humidity;BME280_pressure;Samples;Min_cycle;Max_cycle;Signal;HPM_P1;HPM_P2
2022/10/16 00:00:39;;;;;;;6.10;4.10;;;;;;;15.24;47.00;99494.03;5071525;28;20087;-68
2022/10/16 00:03:04;;;;;;;5.65;3.78;;;;;;;15.16;46.80;99488.56;5050250;28;20025;-68
2022/10/16 00:05:30;;;;;;;6.82;4.25;;;;;;;15.15;46.80;99497.44;5017424;28;20119;-69
2022/10/16 00:07:55;;;;;;;5.00;3.88;;;;;;;15.12;46.91;99492.44;5033947;28;20112;-69
2022/10/16 00:10:21;;;;;;;6.55;4.20;;;;;;;15.06;46.86;99485.06;5050347;28;20037;-68
2022/10/16 00:12:46;;;;;;;5.32;3.90;;;;;;;15.06;46.74;99503.47;5033503;28;20033;-67
2022/10/16 00:15:12;;;;;;;7.63;4.00;;;;;;;15.02;46.83;99497.59;5033893;28;20094;-68
2022/10/16 00:17:37;;;;;;;7.35;3.80;;;;;;;14.99;46.77;99498.72;5033732;28;20373;-67
2022/10/16 00:20:03;;;;;;;6.60;3.88;;;;;;;14.91;46.97;99489.78;5050695;28;20408;-68
2022/10/16 00:22:29;;;;;;;5.25;3.85;;;;;;;14.92;46.91;99494.91;5050086;28;20040;-68
2022/10/16 00:24:54;;;;;;;8.05;4.03;;;;;;;14.90;46.70;99498.66;5051169;28;20075;-68
2022/10/16 00:27:20;;;;;;;5.82;3.67;;;;;;;14.88;46.84;99506.66;5055328;28;20024;-68
2022/10/16 00:29:49;;;;;;;6.10;3.70;;;;;;;14.82;46.83;99496.63;5053590;28;20114;-67
2022/10/16 00:32:15;;;;;;;6.25;3.70;;;;;;;14.83;46.78;99498.28;5020981;28;20059;-68
2022/10/16 00:34:40;;;;;;;6.95;3.50;;;;;;;14.77;46.87;99486.50;5048880;28;20490;-67
2022/10/16 00:37:06;;;;;;;6.10;3.95;;;;;;;14.73;46.78;99492.97;5053846;28;20037;-68
2022/10/16 00:39:31;;;;;;;5.97;3.67;;;;;;;14.72;46.70;99499.19;5037029;28;20110;-69
2022/10/16 00:41:57;;;;;;;6.53;3.78;;;;;;;14.67;46.82;99484.75;5037271;28;20021;-68
2022/10/16 00:44:43;;;;;;;5.30;3.47;;;;;;;14.67;46.88;99493.44;5053492;28;20472;-68
2022/10/16 00:47:15;;;;;;;7.53;3.60;;;;;;;14.68;46.82;99508.28;5037318;28;20037;-69
2022/10/16 00:49:41;;;;;;;8.07;3.75;;;;;;;14.62;46.75;99495.63;5037046;28;20036;-73
2022/10/16 00:52:06;;;;;;;5.63;3.58;;;;;;;14.64;46.81;99506.84;5020593;28;20071;-69
2022/10/16 00:54:32;;;;;;;7.13;3.47;;;;;;;14.60;46.99;99506.25;5053408;28;20036;-68
2022/10/16 00:57:03;;;;;;;5.93;3.20;;;;;;;14.60;47.04;99508.06;5036753;28;20059;-69
2022/10/16 00:59:37;;;;;;;6.00;3.55;;;;;;;14.58;46.91;99516.03;5037694;28;20039;-69
2022/10/16 01:02:03;;;;;;;4.78;3.63;;;;;;;14.57;47.04;99516.16;5045326;28;20032;-69
2022/10/16 01:04:34;;;;;;;4.85;3.47;;;;;;;14.51;47.10;99509.59;5073297;28;20056;-69
2022/10/16 01:07:15;;;;;;;7.05;3.22;;;;;;;14.55;47.08;99524.16;5073516;28;20024;-69
2022/10/16 01:09:49;;;;;;;7.10;3.85;;;;;;;14.53;46.97;99518.22;5090720;28;20028;-69
2022/10/16 01:12:36;;;;;;;5.78;3.33;;;;;;;14.52;47.12;99516.53;5089228;28;20534;-69
2022/10/16 01:15:19;;;;;;;5.03;3.38;;;;;;;14.51;47.02;99524.53;5073647;28;20032;-68
2022/10/16 01:17:52;;;;;;;5.70;3.20;;;;;;;14.50;47.09;99528.97;5074387;28;20032;-69
2022/10/16 01:20:26;;;;;;;5.32;3.20;;;;;;;14.48;47.14;99526.47;5072936;28;20059;-68
2022/10/16 01:23:05;;;;;;;5.35;3.33;;;;;;;14.48;47.27;99530.84;5073118;28;20102;-69
2022/10/16 01:26:09;;;;;;;6.53;3.17;;;;;;;14.47;47.12;99540.53;5072851;28;20029;-68
2022/10/16 01:28:51;;;;;;;6.00;3.30;;;;;;;14.45;47.26;99534.56;5073886;28;20053;-68
2022/10/16 01:31:18;;;;;;;7.53;3.38;;;;;;;14.43;47.30;99533.84;5072671;28;20035;-68
2022/10/16 01:33:51;;;;;;;7.82;3.47;;;;;;;14.43;47.23;99528.59;5072484;28;20029;-68
2022/10/16 01:36:23;;;;;;;5.18;3.45;;;;;;;14.40;47.29;99522.75;5072321;28;20025;-67
2022/10/16 01:38:50;;;;;;;4.43;3.13;;;;;;;14.39;47.22;99521.94;5056199;28;20034;-69
2022/10/16 01:41:41;;;;;;;7.80;3.40;;;;;;;14.43;47.18;99528.59;5055851;28;20115;-68
2022/10/16 01:44:10;;;;;;;7.18;3.40;;;;;;;14.41;47.29;99527.06;5071899;28;20443;-71
2022/10/16 01:46:36;;;;;;;6.80;3.17;;;;;;;14.42;47.18;99524.31;5072301;28;20070;-69
2022/10/16 01:49:02;;;;;;;6.03;2.97;;;;;;;14.43;47.08;99533.03;5072252;28;20090;-67
2022/10/16 01:51:27;;;;;;;6.38;3.58;;;;;;;14.43;46.99;99531.22;5072188;28;20024;-67
2022/10/16 01:53:54;;;;;;;6.18;3.50;;;;;;;14.39;46.98;99528.97;5056026;28;20036;-68
2022/10/16 01:56:21;;;;;;;7.20;3.10;;;;;;;14.43;47.06;99539.09;5072114;28;20060;-68
2022/10/16 01:58:55;;;;;;;6.65;3.38;;;;;;;14.42;47.03;99537.44;5072172;28;20518;-68
2022/10/16 02:01:22;;;;;;;4.95;3.20;;;;;;;14.41;47.25;99535.78;5072534;28;20031;-68
2022/10/16 02:03:49;;;;;;;4.93;3.20;;;;;;;14.40;47.19;99534.09;5071942;28;20412;-68
2022/10/16 02:06:15;;;;;;;5.78;3.50;;;;;;;14.32;47.41;99528.63;5055546;28;20532;-68
2022/10/16 02:08:43;;;;;;;9.85;3.10;;;;;;;14.38;47.24;99543.06;5072208;28;20060;-67
2022/10/16 02:11:09;;;;;;;7.50;3.78;;;;;;;14.34;47.31;99534.56;5071843;28;20016;-68
2022/10/16 02:13:46;;;;;;;6.70;3.65;;;;;;;14.34;47.45;99541.63;5055223;28;20557;-68
2022/10/16 02:16:13;;;;;;;5.00;3.35;;;;;;;14.27;47.46;99530.78;5072477;28;20028;-68
2022/10/16 02:18:38;;;;;;;5.00;3.15;;;;;;;14.24;47.61;99534.47;5055301;28;20044;-68
2022/10/16 02:21:40;;;;;;;6.00;3.33;;;;;;;14.25;47.33;99544.03;5071863;28;20074;-68
2022/10/16 02:24:20;;;;;;;5.20;3.30;;;;;;;14.26;47.58;99553.59;5051010;28;20106;-67
2022/10/16 02:26:48;;;;;;;6.70;3.58;;;;;;;14.22;47.33;99544.28;5033912;28;20131;-67
2022/10/16 02:29:14;;;;;;;6.47;3.25;;;;;;;14.27;47.44;99549.97;5030410;28;20123;-66
2022/10/16 02:31:41;;;;;;;9.05;3.53;;;;;;;14.24;47.32;99552.84;5030269;28;20525;-67
2022/10/16 02:34:07;;;;;;;5.75;3.55;;;;;;;14.19;47.30;99546.31;5013761;28;20062;-67
2022/10/16 02:36:32;;;;;;;5.38;3.45;;;;;;;14.23;47.25;99556.44;5030811;28;20128;-67
2022/10/16 02:39:00;;;;;;;5.30;3.17;;;;;;;14.21;47.68;99549.63;5014085;28;20079;-66
2022/10/16 02:41:25;;;;;;;4.57;3.25;;;;;;;14.17;47.42;99549.06;5013954;28;20037;-67
2022/10/16 02:43:51;;;;;;;6.03;3.67;;;;;;;14.17;47.66;99550.81;5030463;28;20540;-66
2022/10/16 02:46:16;;;;;;;4.35;2.88;;;;;;;14.16;47.45;99549.19;5030172;28;20479;-67
2022/10/16 02:48:42;;;;;;;5.13;3.42;;;;;;;14.15;47.62;99550.13;5013104;28;20076;-67
2022/10/16 02:51:07;;;;;;;6.63;3.47;;;;;;;14.15;47.50;99548.31;5030092;28;20025;-66
2022/10/16 02:53:33;;;;;;;5.68;3.38;;;;;;;14.15;47.34;99544.88;5030205;28;20056;-67
2022/10/16 02:55:58;;;;;;;5.25;3.50;;;;;;;14.13;47.21;99546.78;5013816;28;20409;-67
2022/10/16 02:58:24;;;;;;;4.70;3.05;;;;;;;14.21;47.29;99552.25;5030233;28;20136;-66
2022/10/16 03:00:49;;;;;;;7.85;3.55;;;;;;;14.17;47.12;99540.31;5044762;28;20044;-67
2022/10/16 03:03:15;;;;;;;6.22;3.25;;;;;;;14.24;46.79;99552.03;5034159;28;20075;-67
2022/10/16 03:05:40;;;;;;;6.45;3.25;;;;;;;14.25;46.86;99551.09;5051187;28;20036;-67
2022/10/16 03:08:06;;;;;;;7.05;3.28;;;;;;;14.24;46.80;99552.03;5052017;28;20029;-66
2022/10/16 03:10:31;;;;;;;4.43;2.70;;;;;;;14.25;46.71;99554.53;5051274;28;20087;-66
2022/10/16 03:12:57;;;;;;;7.22;3.20;;;;;;;14.26;46.91;99561.47;5034175;28;20044;-66
2022/10/16 03:15:22;;;;;;;6.03;3.00;;;;;;;14.24;46.74;99559.91;5051058;28;20047;-67
2022/10/16 03:17:48;;;;;;;5.10;3.30;;;;;;;14.25;46.58;99559.78;5050368;28;20045;-67
2022/10/16 03:20:13;;;;;;;4.38;3.10;;;;;;;14.24;46.73;99555.47;5050955;28;20032;-66
2022/10/16 03:22:39;;;;;;;6.05;3.10;;;;;;;14.30;46.40;99573.38;5039205;28;20028;-67
2022/10/16 03:25:05;;;;;;;4.72;2.83;;;;;;;14.28;46.35;99563.97;5070811;28;20036;-67
2022/10/16 03:27:30;;;;;;;5.03;2.90;;;;;;;14.34;46.32;99573.13;5087544;28;20078;-67
2022/10/16 03:29:56;;;;;;;5.18;2.60;;;;;;;14.30;46.31;99559.44;5071741;28;20059;-67
2022/10/16 03:32:21;;;;;;;4.03;2.65;;;;;;;14.34;46.36;99563.47;5070536;28;20040;-68
2022/10/16 03:34:47;;;;;;;4.40;2.90;;;;;;;14.30;46.07;99554.16;5070901;28;20452;-68
2022/10/16 03:37:12;;;;;;;6.70;3.00;;;;;;;14.32;46.13;99561.94;5070675;28;20032;-68
2022/10/16 03:39:38;;;;;;;6.72;2.97;;;;;;;14.37;46.08;99575.53;5071230;28;20511;-68
2022/10/16 03:42:03;;;;;;;4.30;2.70;;;;;;;14.36;46.07;99568.59;5069751;28;20471;-69
2022/10/16 03:44:29;;;;;;;5.15;2.58;;;;;;;14.32;46.17;99561.94;5050749;28;20041;-68
2022/10/16 03:46:54;;;;;;;7.40;3.28;;;;;;;14.36;45.98;99579.97;5033849;28;20118;-68
2022/10/16 03:49:20;;;;;;;5.35;2.80;;;;;;;14.37;45.82;99580.78;5051877;28;20468;-67
2022/10/16 03:51:45;;;;;;;4.90;2.55;;;;;;;14.36;45.75;99577.34;5050386;28;20065;-68
2022/10/16 03:54:11;;;;;;;4.18;2.55;;;;;;;14.33;45.87;99580.19;5041196;28;20543;-68
2022/10/16 03:56:36;;;;;;;4.38;2.83;;;;;;;14.33;45.70;99577.56;5053987;28;20048;-68
2022/10/16 03:59:02;;;;;;;3.95;2.70;;;;;;;14.37;45.86;99589.47;5071952;28;20437;-68
2022/10/16 04:01:27;;;;;;;4.60;3.00;;;;;;;14.36;45.65;99590.47;5074263;28;20072;-68
2022/10/16 04:03:53;;;;;;;4.93;2.92;;;;;;;14.33;45.75;99582.81;5074280;28;20028;-68
2022/10/16 04:06:18;;;;;;;5.18;2.67;;;;;;;14.37;45.73;99589.47;5057840;28;20062;-68
2022/10/16 04:08:44;;;;;;;3.88;2.40;;;;;;;14.38;45.58;99590.34;5074311;28;20044;-69
2022/10/16 04:11:09;;;;;;;5.03;2.60;;;;;;;14.37;45.73;99584.22;5074393;28;20494;-69
2022/10/16 04:13:35;;;;;;;6.05;2.90;;;;;;;14.39;45.58;99584.97;5074494;28;20036;-69
2022/10/16 04:16:00;;;;;;;5.25;2.92;;;;;;;14.39;45.60;99584.97;5057639;28;20407;-69
2022/10/16 04:18:27;;;;;;;6.15;2.58;;;;;;;14.40;45.60;99586.63;5074306;28;20029;-68
2022/10/16 04:20:53;;;;;;;8.15;2.75;;;;;;;14.38;45.58;99577.22;5074136;28;20029;-69
2022/10/16 04:23:18;;;;;;;5.28;2.70;;;;;;;14.36;45.57;99579.09;5074046;28;20491;-68
2022/10/16 04:25:44;;;;;;;4.82;3.05;;;;;;;14.35;45.65;99569.56;5057669;28;20062;-68
2022/10/16 04:28:09;;;;;;;7.63;4.03;;;;;;;14.40;45.96;99588.41;5057274;28;20028;-68
2022/10/16 04:30:37;;;;;;;5.82;2.92;;;;;;;14.40;45.78;99585.78;5053473;28;20059;-68
2022/10/16 04:33:02;;;;;;;4.13;2.53;;;;;;;14.42;45.73;99592.59;5037460;28;20032;-67
2022/10/16 04:35:28;;;;;;;4.85;2.88;;;;;;;14.44;45.82;99595.94;5054119;28;20052;-69
2022/10/16 04:37:53;;;;;;;3.33;2.50;;;;;;;14.51;45.71;99596.28;5053929;28;20476;-68
2022/10/16 04:40:19;;;;;;;4.70;2.70;;;;;;;14.58;45.31;99594.84;5053826;28;20067;-68
2022/10/16 04:42:44;;;;;;;5.20;2.60;;;;;;;14.78;45.32;99598.53;5037007;28;20037;-68
2022/10/16 04:45:10;;;;;;;4.28;2.30;;;;;;;14.95;44.77;99606.88;5054466;28;20063;-68
2022/10/16 04:47:35;;;;;;;5.07;2.67;;;;;;;15.10;44.37;99591.63;5036784;28;20106;-68
2022/10/16 04:50:02;;;;;;;4.15;2.30;;;;;;;15.37;43.80;99605.16;5053402;28;20037;-67
2022/10/16 04:52:27;;;;;;;9.70;2.65;;;;;;;15.54;43.44;99609.03;5036658;28;20037;-68
2022/10/16 04:54:54;;;;;;;4.53;2.70;;;;;;;15.79;42.94;99612.28;5053744;28;20064;-68
2022/10/16 04:57:19;;;;;;;6.57;3.03;;;;;;;16.04;42.31;99612.84;5036756;28;20081;-68
2022/10/16 04:59:45;;;;;;;9.05;2.75;;;;;;;16.30;41.74;99615.84;5054629;28;20423;-68
2022/10/16 05:02:10;;;;;;;6.72;2.67;;;;;;;16.58;40.95;99613.47;5053416;28;20052;-68
2022/10/16 05:04:36;;;;;;;5.80;3.13;;;;;;;16.85;40.51;99617.28;5053441;28;20083;-69
2022/10/16 05:07:01;;;;;;;5.47;2.95;;;;;;;17.18;39.80;99632.75;5050582;28;20033;-69
2022/10/16 05:09:26;;;;;;;5.80;2.80;;;;;;;17.47;39.29;99631.09;5090176;28;20446;-68
2022/10/16 05:11:52;;;;;;;4.70;2.70;;;;;;;17.78;38.58;99630.94;5072576;28;20029;-68
2022/10/16 05:14:17;;;;;;;3.92;2.47;;;;;;;18.06;37.98;99637.19;5073199;28;20478;-69
2022/10/16 05:16:43;;;;;;;5.57;2.50;;;;;;;18.41;37.09;99636.50;5073189;28;20040;-68
2022/10/16 05:19:08;;;;;;;4.05;2.50;;;;;;;18.70;36.60;99638.16;5073141;28;20031;-68
2022/10/16 05:21:34;;;;;;;4.05;2.35;;;;;;;19.05;35.82;99641.06;5072889;28;20036;-67
2022/10/16 05:23:59;;;;;;;3.63;2.50;;;;;;;19.39;35.22;99637.72;5072995;28;20031;-68
2022/10/16 05:26:25;;;;;;;7.32;2.70;;;;;;;19.67;34.68;99626.06;5073123;28;20032;-68
2022/10/16 05:28:50;;;;;;;3.50;2.30;;;;;;;20.01;34.03;99637.75;5072632;28;20049;-68
2022/10/16 05:31:16;;;;;;;4.47;2.35;;;;;;;20.28;33.52;99628.78;5072978;28;20029;-68
2022/10/16 05:33:41;;;;;;;6.90;2.33;;;;;;;20.68;33.03;99639.75;5072671;28;20024;-68
2022/10/16 05:36:08;;;;;;;4.40;2.40;;;;;;;21.03;32.36;99644.03;5072962;28;20070;-69
2022/10/16 05:38:37;;;;;;;5.00;2.20;;;;;;;21.40;31.73;99650.72;5073352;28;20029;-68
2022/10/16 05:41:03;;;;;;;8.82;2.20;;;;;;;21.76;31.09;99646.91;5072789;28;20122;-67
2022/10/16 05:43:29;;;;;;;6.50;2.45;;;;;;;22.19;30.53;99651.00;5051180;28;20025;-67
2022/10/16 05:46:04;;;;;;;6.22;2.60;;;;;;;22.61;29.82;99657.03;5036236;28;20103;-68
2022/10/16 05:48:30;;;;;;;11.18;3.03;;;;;;;22.96;28.94;99660.19;5035990;28;20021;-68
2022/10/16 05:51:03;;;;;;;6.53;2.95;;;;;;;23.25;28.16;99653.44;5053536;28;20035;-69
2022/10/16 05:53:29;;;;;;;8.40;3.28;;;;;;;23.55;27.49;99658.88;5053835;28;20028;-68
2022/10/16 05:55:55;;;;;;;7.28;3.45;;;;;;;23.83;27.00;99662.66;5052516;28;20463;-66
2022/10/16 05:58:21;;;;;;;7.63;3.25;;;;;;;24.05;26.72;99662.75;5052036;28;20072;-67
2022/10/16 06:00:54;;;;;;;8.68;3.10;;;;;;;24.39;26.27;99670.25;5035656;28;20090;-67
2022/10/16 06:03:21;;;;;;;8.95;3.33;;;;;;;24.67;25.72;99672.28;5052239;28;20459;-68
2022/10/16 06:05:46;;;;;;;10.65;3.72;;;;;;;24.97;25.37;99674.06;5035791;28;20498;-68
2022/10/16 06:08:11;;;;;;;9.35;3.38;;;;;;;25.18;25.11;99676.78;5051929;28;20033;-70
2022/10/16 06:10:37;;;;;;;9.23;3.63;;;;;;;25.36;24.82;99675.56;5052996;28;20036;-68
2022/10/16 06:13:02;;;;;;;7.85;3.65;;;;;;;25.65;24.48;99677.28;5035145;28;20084;-68
2022/10/16 06:15:29;;;;;;;10.95;3.20;;;;;;;25.96;24.23;99670.72;5035220;28;20063;-67
2022/10/16 06:17:54;;;;;;;9.15;3.15;;;;;;;26.28;24.14;99688.06;5049533;28;20032;-68
2022/10/16 06:20:20;;;;;;;9.38;3.13;;;;;;;26.54;23.89;99683.88;5071785;28;20503;-66
2022/10/16 06:22:45;;;;;;;10.38;3.03;;;;;;;26.88;23.13;99677.69;5061867;28;20032;-68
2022/10/16 06:25:11;;;;;;;10.07;3.28;;;;;;;27.23;23.00;99684.78;5038807;28;20036;-66
2022/10/16 06:27:40;;;;;;;12.68;3.10;;;;;;;27.53;22.42;99679.09;5052966;28;20029;-66
2022/10/16 06:30:06;;;;;;;7.20;2.90;;;;;;;27.87;25.58;99688.78;5052345;28;20109;-75
2022/10/16 06:32:31;;;;;;;7.75;2.80;;;;;;;28.13;24.42;99695.19;5035447;28;20025;-72
2022/10/16 06:34:57;;;;;;;5.68;2.50;;;;;;;28.36;24.03;99686.69;5018785;28;20049;-71
2022/10/16 06:37:22;;;;;;;4.88;2.42;;;;;;;28.63;22.75;99698.22;5018384;28;20035;-71
2022/10/16 06:39:48;;;;;;;5.50;2.60;;;;;;;28.91;22.31;99691.72;5018510;28;20043;-70
2022/10/16 06:42:13;;;;;;;8.52;2.55;;;;;;;29.37;21.85;99708.66;5035478;28;20071;-70
2022/10/16 06:44:39;;;;;;;6.90;2.65;;;;;;;29.95;20.79;99699.53;5035415;28;20040;-70
2022/10/16 06:47:04;;;;;;;9.25;2.40;;;;;;;30.62;19.65;99709.69;5035096;28;20127;-71
2022/10/16 06:49:30;;;;;;;11.00;2.47;;;;;;;31.30;19.28;99702.41;5034919;28;20056;-71
2022/10/16 06:51:56;;;;;;;10.05;2.50;;;;;;;32.04;18.28;99708.31;5018147;28;20055;-71
2022/10/16 06:54:21;;;;;;;10.55;3.00;;;;;;;32.69;17.53;99711.94;5043172;28;20047;-70
2022/10/16 06:56:47;;;;;;;11.05;2.90;;;;;;;33.10;17.19;99714.59;5054727;28;20037;-69
2022/10/16 06:59:12;;;;;;;8.93;3.17;;;;;;;33.41;17.04;99715.22;5054439;28;20028;-68
2022/10/16 07:01:38;;;;;;;9.70;3.40;;;;;;;33.29;16.91;99726.06;5071608;28;20021;-70
2022/10/16 07:04:03;;;;;;;7.40;3.10;;;;;;;32.94;16.16;99722.44;5070881;28;20041;-69
2022/10/16 07:06:31;;;;;;;8.45;2.60;;;;;;;32.60;16.25;99724.97;5053971;28;20036;-68
2022/10/16 07:08:56;;;;;;;6.57;2.90;;;;;;;31.97;17.00;99731.09;5054121;28;20102;-68
2022/10/16 07:11:22;;;;;;;6.63;3.15;;;;;;;31.37;17.95;99733.63;5054531;28;20055;-69
2022/10/16 07:13:48;;;;;;;6.53;3.00;;;;;;;30.92;17.72;99733.19;5054562;28;20166;-69
2022/10/16 07:16:18;;;;;;;9.07;3.30;;;;;;;30.69;17.91;99723.88;5054175;28;20025;-70
2022/10/16 07:18:45;;;;;;;9.15;3.17;;;;;;;30.53;18.50;99721.81;5071540;28;20059;-70
2022/10/16 07:21:16;;;;;;;7.88;2.95;;;;;;;30.43;18.48;99730.41;5054605;28;20079;-68
2022/10/16 07:23:41;;;;;;;8.32;3.40;;;;;;;30.31;19.27;99723.03;5054491;28;20032;-68
2022/10/16 07:26:07;;;;;;;4.85;2.88;;;;;;;30.40;20.22;99728.97;5054414;28;20373;-68
2022/10/16 07:28:33;;;;;;;8.07;3.25;;;;;;;30.56;20.37;99721.38;5053534;28;20060;-69
2022/10/16 07:31:06;;;;;;;10.45;3.50;;;;;;;30.72;21.96;99731.53;5071657;28;20512;-66
2022/10/16 07:33:32;;;;;;;10.13;3.70;;;;;;;31.03;21.37;99729.75;5064623;28;20185;-68
2022/10/16 07:35:57;;;;;;;6.55;3.50;;;;;;;31.32;21.39;99721.88;5033215;28;20439;-71
2022/10/16 07:38:23;;;;;;;8.90;3.10;;;;;;;31.74;21.83;99722.72;5054141;28;20029;-73
2022/10/16 07:40:56;;;;;;;9.02;3.25;;;;;;;32.01;22.25;99713.38;5037884;28;20041;-73
2022/10/16 07:43:22;;;;;;;6.90;3.20;;;;;;;32.27;21.78;99723.69;5038203;28;20044;-75
2022/10/16 07:45:49;;;;;;;10.00;3.28;;;;;;;32.50;21.36;99721.22;5037361;28;20399;-75
2022/10/16 07:48:14;;;;;;;5.23;3.20;;;;;;;32.71;21.18;99728.72;5053042;28;20034;-75
2022/10/16 07:50:41;;;;;;;6.68;3.20;;;;;;;32.85;20.80;99715.78;5037441;28;20278;-75
2022/10/16 07:53:06;;;;;;;10.52;3.13;;;;;;;33.11;21.03;99719.78;5054197;28;20071;-73
2022/10/16 07:55:32;;;;;;;9.15;3.10;;;;;;;33.31;20.96;99721.25;5053817;28;20033;-71
2022/10/16 07:57:57;;;;;;;7.05;3.33;;;;;;;33.47;20.47;99717.75;5054053;28;20068;-74
2022/10/16 08:00:23;;;;;;;7.22;4.32;;;;;;;33.62;19.99;99719.06;5053939;28;20492;-71
2022/10/16 08:02:48;;;;;;;14.90;3.58;;;;;;;33.82;19.99;99719.44;5036986;28;20033;-70
2022/10/16 08:05:14;;;;;;;12.13;5.88;;;;;;;33.80;17.31;99724.28;5020588;28;20110;-80
2022/10/16 08:07:39;;;;;;;12.68;8.15;;;;;;;33.44;17.55;99717.44;5040104;28;20036;-84
2022/10/16 08:10:05;;;;;;;15.63;7.68;;;;;;;33.25;16.72;99725.75;5050037;28;20049;-77
2022/10/16 08:12:31;;;;;;;11.50;6.78;;;;;;;33.05;17.54;99722.63;5063415;28;20021;-72
2022/10/16 08:14:56;;;;;;;8.90;5.93;;;;;;;32.76;17.45;99718.03;5062467;28;20035;-74
2022/10/16 08:17:22;;;;;;;11.98;7.53;;;;;;;32.62;17.47;99709.34;5053332;28;20031;-71
2022/10/16 08:19:47;;;;;;;10.15;5.70;;;;;;;32.56;15.64;99721.13;5059448;28;20707;-72
2022/10/16 08:22:16;;;;;;;12.65;9.07;;;;;;;32.24;18.25;99713.38;5060456;28;20029;-72
2022/10/16 08:24:42;;;;;;;25.55;13.13;;;;;;;32.25;18.26;99714.22;5061097;28;20028;-71
2022/10/16 08:27:08;;;;;;;8.25;6.55;;;;;;;32.26;17.63;99716.69;5062068;28;20474;-71
2022/10/16 08:29:34;;;;;;;10.88;8.15;;;;;;;32.21;19.13;99713.03;5045912;28;20060;-72
2022/10/16 08:31:59;;;;;;;10.93;7.13;;;;;;;32.28;19.81;99711.84;5043247;28;20488;-71
2022/10/16 08:34:25;;;;;;;11.88;9.65;;;;;;;32.25;19.55;99714.22;5058322;28;20520;-71
2022/10/16 08:36:53;;;;;;;13.55;9.40;;;;;;;32.35;18.63;99706.31;5060485;28;20552;-75
2022/10/16 08:39:18;;;;;;;17.13;10.75;;;;;;;32.51;17.75;99712.06;5042018;28;20080;-71
2022/10/16 08:42:09;;;;;;;10.43;7.00;;;;;;;32.77;18.64;99718.88;5060488;28;20052;-71
2022/10/16 08:44:40;;;;;;;8.85;6.78;;;;;;;32.90;18.25;99713.16;5059270;28;20028;-73
2022/10/16 08:47:47;;;;;;;9.48;5.50;;;;;;;32.88;16.94;99715.28;5059815;28;20025;-76
2022/10/16 08:50:13;;;;;;;;;;;;;;;32.93;17.72;99712.69;5000170;28;20045;-72
2022/10/16 08:52:40;;;;;;;7.35;5.40;;;;;;;32.98;19.56;99712.78;4969336;28;19918;-72
2022/10/16 08:55:06;;;;;;;11.43;7.88;;;;;;;33.22;17.90;99717.31;4967827;28;20029;-71
2022/10/16 08:57:32;;;;;;;9.45;5.55;;;;;;;33.26;18.05;99710.34;4975533;28;20197;-73
2022/10/16 09:00:09;;;;;;;13.18;6.45;;;;;;;33.47;20.24;99715.06;4974645;28;20053;-73
2022/10/16 09:02:57;;;;;;;12.83;8.93;;;;;;;33.60;15.86;99711.19;4974840;28;20069;-72
2022/10/16 09:05:37;;;;;;;7.68;5.65;;;;;;;33.65;16.76;99715.88;4984855;28;20042;-72
2022/10/16 09:08:29;;;;;;;7.45;5.40;;;;;;;33.82;16.43;99716.72;5000516;28;20083;-73
2022/10/16 09:11:01;;;;;;;12.57;5.20;;;;;;;33.86;14.72;99720.59;4885958;29;20115;-74
2022/10/16 09:13:29;;;;;;;5.85;4.20;;;;;;;33.84;14.85;99725.44;4869219;29;20532;-72
2022/10/16 09:15:59;;;;;;;7.55;4.90;;;;;;;33.62;14.89;99708.25;4868128;29;20517;-77
2022/10/16 09:18:30;;;;;;;7.88;4.50;;;;;;;33.56;15.43;99714.63;4845813;29;20088;-73
2022/10/16 09:21:01;;;;;;;7.88;4.40;;;;;;;33.26;16.10;99722.00;4868015;29;20040;-72
2022/10/16 09:23:28;;;;;;;8.25;4.13;;;;;;;33.17;15.06;99710.72;4893539;28;20586;-72
2022/10/16 09:25:54;;;;;;;10.18;4.32;;;;;;;32.94;16.59;99716.19;4938068;28;20085;-73
2022/10/16 09:28:20;;;;;;;28.55;9.32;;;;;;;32.89;29.41;99713.41;4946092;28;20047;-72
2022/10/16 09:30:48;;;;;;;19.27;3.70;;;;;;;32.92;15.83;99712.94;4938522;28;20438;-71
2022/10/16 09:33:13;;;;;;;6.30;4.18;;;;;;;32.89;15.67;99708.00;4928806;28;20031;-71
2022/10/16 09:35:42;;;;;;;13.32;4.68;;;;;;;32.94;28.63;99718.91;4929974;28;20411;-79
2022/10/16 09:38:07;;;;;;;5.60;3.80;;;;;;;33.03;16.75;99711.25;4961419;28;20573;-75
2022/10/16 09:40:35;;;;;;;8.50;3.75;;;;;;;32.90;16.54;99702.34;4928128;28;20102;-76
2022/10/16 09:43:38;;;;;;;8.77;3.88;;;;;;;32.74;16.60;99706.63;4929800;28;20031;-79
2022/10/16 09:46:05;;;;;;;7.47;3.25;;;;;;;32.32;18.82;99706.78;4962121;28;20031;-78
2022/10/16 09:48:39;;;;;;;5.32;3.20;;;;;;;32.37;18.50;99697.97;4998887;28;20485;-78
2022/10/16 09:51:06;;;;;;;5.00;3.50;;;;;;;32.20;17.89;99696.00;5059613;28;20510;-81
2022/10/16 09:53:42;;;;;;;8.70;3.88;;;;;;;31.93;18.95;99688.34;5052135;28;20045;-78
2022/10/16 09:56:10;;;;;;;4.90;3.47;;;;;;;32.03;18.53;99690.47;5044339;28;20496;-72
2022/10/16 09:58:35;;;;;;;7.18;3.45;;;;;;;32.09;18.03;99692.25;5058206;28;20108;-74
2022/10/16 10:01:01;;;;;;;8.15;3.50;;;;;;;31.70;18.22;99689.16;5060637;28;20013;-79
2022/10/16 10:03:37;;;;;;;6.05;3.28;;;;;;;31.46;17.88;99680.16;5043706;28;20029;-78
2022/10/16 10:06:18;;;;;;;8.52;3.60;;;;;;;31.26;17.62;99674.25;5044890;28;20035;-79
2022/10/16 10:09:02;;;;;;;6.13;3.72;;;;;;;31.36;17.79;99683.44;5062138;28;20038;-80
2022/10/16 10:11:41;;;;;;;10.18;3.53;;;;;;;31.40;18.31;99670.28;5045431;28;20029;-70
2022/10/16 10:14:16;;;;;;;11.02;4.53;;;;;;;31.43;18.75;99663.63;5044678;28;20492;-76
2022/10/16 10:16:42;;;;;;;7.72;4.32;;;;;;;31.44;18.28;99663.41;5060067;28;20584;-71
2022/10/16 10:19:46;;;;;;;7.78;3.00;;;;;;;31.47;16.99;99662.09;5043914;28;20056;-82
2022/10/16 10:22:30;;;;;;;8.93;4.60;;;;;;;31.37;18.31;99660.81;5061669;28;20024;-71
2022/10/16 10:24:56;;;;;;;6.20;3.10;;;;;;;31.21;16.97;99674.94;5060459;28;20059;-71
2022/10/16 10:27:21;;;;;;;8.02;4.70;;;;;;;31.05;18.38;99670.22;5059909;28;20052;-75
2022/10/16 10:30:20;;;;;;;10.30;3.45;;;;;;;30.64;18.52;99665.28;5042596;28;20075;-72
2022/10/16 10:32:58;;;;;;;8.73;3.28;;;;;;;30.35;20.40;99657.94;5059330;28;20041;-73
2022/10/16 10:35:41;;;;;;;7.88;3.17;;;;;;;30.20;18.33;99655.63;5058583;28;20025;-76
2022/10/16 10:38:27;;;;;;;5.97;2.40;;;;;;;30.16;15.68;99660.63;5060514;28;20063;-73
2022/10/16 10:41:02;;;;;;;4.03;1.90;;;;;;;29.93;15.08;99654.00;5045978;28;20029;-72
2022/10/16 10:44:06;;;;;;;3.33;1.98;;;;;;;29.63;15.79;99653.03;5059454;28;20101;-70
2022/10/16 10:46:35;;;;;;;5.90;2.30;;;;;;;29.50;16.33;99651.25;4997648;28;20030;-71
2022/10/16 10:49:21;;;;;;;4.70;2.60;;;;;;;29.27;16.30;99651.84;4972964;28;20520;-71
2022/10/16 10:52:05;;;;;;;4.25;2.47;;;;;;;28.90;17.17;99644.38;4997392;28;20034;-71
2022/10/16 10:54:49;;;;;;;7.65;2.55;;;;;;;28.95;17.41;99646.41;4996545;28;20109;-71
2022/10/16 10:57:25;;;;;;;5.30;1.83;;;;;;;28.58;17.13;99638.13;4983407;28;20064;-72
2022/10/16 11:00:20;;;;;;;6.40;1.90;;;;;;;28.31;16.60;99636.31;4980997;28;20091;-71
2022/10/16 11:03:22;;;;;;;7.05;2.95;;;;;;;27.65;18.23;99639.91;4982100;28;20057;-69
2022/10/16 11:05:59;;;;;;;9.80;3.08;;;;;;;27.47;18.45;99637.00;4999724;28;20092;-69
2022/10/16 11:08:48;;;;;;;7.95;3.67;;;;;;;27.26;19.12;99645.00;4981411;28;20070;-75
2022/10/16 11:11:19;;;;;;;7.25;3.80;;;;;;;26.93;19.33;99636.91;4974828;28;20421;-70
2022/10/16 11:13:54;;;;;;;9.05;3.58;;;;;;;26.82;19.46;99638.31;4966427;28;20457;-79
2022/10/16 11:16:34;;;;;;;8.95;3.50;;;;;;;26.57;20.11;99637.13;4988765;28;20026;-70
2022/10/16 11:19:05;;;;;;;6.72;3.67;;;;;;;26.21;20.70;99631.00;4970754;28;20187;-73
2022/10/16 11:21:36;;;;;;;7.95;3.67;;;;;;;26.18;20.63;99631.38;5054762;28;20515;-71
2022/10/16 11:24:12;;;;;;;12.60;3.50;;;;;;;26.14;20.60;99627.44;5044385;28;20029;-70
2022/10/16 11:26:39;;;;;;;7.10;3.65;;;;;;;26.08;20.56;99628.25;5058919;28;20155;-69
2022/10/16 11:29:05;;;;;;;6.10;3.60;;;;;;;25.84;21.35;99641.03;5042315;28;20518;-69
2022/10/16 11:31:55;;;;;;;5.93;3.47;;;;;;;25.52;21.17;99640.53;5042072;28;20060;-70
2022/10/16 11:34:47;;;;;;;8.55;3.90;;;;;;;24.89;21.99;99641.13;5043169;28;20111;-71
2022/10/16 11:37:33;;;;;;;6.82;3.45;;;;;;;24.66;21.69;99643.13;5044360;28;20036;-70
2022/10/16 11:40:30;;;;;;;8.98;3.75;;;;;;;24.66;22.07;99638.59;5040892;28;20064;-71
2022/10/16 11:43:14;;;;;;;7.38;3.92;;;;;;;24.59;23.00;99636.84;5054992;28;20101;-74